Flight Track Log - Related Links

Times and Time Zones

All times are in EDT time to prevent confusion due to time zone crossing. See the N43618 flight status page for this flight to view local times or setup timezone preferences in your user account.

Time Position Orientation Groundspeed Altitude Reporting Facility
EDT Latitude Longitude Course Direction KTS MPH feet Rate Location/Type
Wed 02:13:00 PM 29.5956 -98.3206 88° East 126 145 3,900  Level Houston Center
Wed 02:14:08 PM 29.5933 -98.2747 93° East 125 144 4,500 466 Climbing Houston Center
Wed 02:14:56 PM 29.5925 -98.2442 92° East 126 145 4,800 495 Climbing Houston Center
Wed 02:15:57 PM 29.5953 -98.2053 85° East 124 143 5,400 397 Climbing Houston Center
Wed 02:16:57 PM 29.5953 -98.1597 90° East 129 148 5,600  Climbing Houston Center
Wed 02:18:00 PM 29.5769 -98.1709 88° East  Level Estimated
Wed 02:18:04 PM 29.5969 -98.1114 88° East 147 169 5,400  Level Houston Center
Wed 02:19:05 PM 29.5994 -98.0703 86° East 133 153 5,500 103 Climbing Houston Center
Wed 02:20:00 PM 29.6000 -98.0317 89° East 126 145 5,600  Climbing Houston Center
Wed 02:21:01 PM 29.6000 -97.9883 90° East 134 154 5,500 -41 Descending Houston Center
Wed 02:22:25 PM 29.6014 -97.9258 89° East 133 153 5,500 41 Level Houston Center
Wed 02:23:27 PM 29.6017 -97.8817 90° East 138 159 5,600 97 Climbing Houston Center
Wed 02:24:29 PM 29.6022 -97.8378 89° East 139 160 5,700 -145 Climbing Houston Center
Wed 02:25:31 PM 29.6014 -97.7883 91° East 150 173 5,300 -145 Descending Houston Center
Wed 02:26:33 PM 29.6033 -97.7419 87° East 148 170 5,400 96 Climbing Houston Center
Wed 02:27:36 PM 29.6033 -97.7006 90° East 135 155 5,500 96 Climbing Houston Center
Wed 02:28:38 PM 29.6042 -97.6561 89° East 137 158 5,600 -48 Climbing Houston Center
Wed 02:29:40 PM 29.6044 -97.6025 90° East 139 160 5,400  Descending Houston Center
Wed 02:30:42 PM 29.6053 -97.5606 89° East 135 155 5,600 48 Climbing Houston Center
Wed 02:31:44 PM 29.6056 -97.5158 90° East 138 159 5,500 -48 Descending Houston Center
Wed 02:32:46 PM 29.6067 -97.4719 88° East 139 160 5,500 97 Level Houston Center
Wed 02:33:48 PM 29.6064 -97.4253 90° East 142 163 5,700  Climbing Houston Center
Wed 02:34:50 PM 29.6067 -97.3728 90° East 156 180 5,500 -336 Descending Houston Center
Wed 02:35:53 PM 29.6072 -97.3133 89° East 158 182 5,000  Descending Houston Center
Wed 02:36:55 PM 29.6089 -97.2700 87° East 144 166 5,500 194 Climbing Houston Center
Wed 02:37:57 PM 29.6083 -97.2264 91° East 137 158 5,400  Descending Houston Center
Wed 02:38:59 PM 29.6092 -97.1822 89° East 139 160 5,500 48 Climbing Houston Center
Wed 02:40:01 PM 29.6081 -97.1364 92° East 141 162 5,500 -48 Level Houston Center
Wed 02:41:03 PM 29.6081 -97.0883 90° East 147 169 5,400  Descending Houston Center
Wed 02:41:35 PM 29.6083 -97.0572 89° East 143 165 5,500 97 Climbing Houston Center
Wed 02:42:05 PM 29.6094 -97.0358 87° East 140 161 5,500 -98 Level Houston Center
Wed 02:42:36 PM 29.6092 -97.0142 91° East 141 162 5,400  Descending Houston Center
Wed 02:43:07 PM 29.6083 -96.9889 92° East 143 165 5,500 82 Climbing Houston Center
Wed 02:43:49 PM 29.6089 -96.9567 89° East 139 160 5,500  Level Houston Center
Wed 02:44:38 PM 29.6103 -96.9228 87° East 138 159 5,500  Level Houston Center
Wed 02:45:12 PM 29.6097 -96.9000 92° East 141 162 5,500  Level Houston Center
Wed 02:46:14 PM 29.6097 -96.8528 90° East 146 168 5,500 -63 Level Houston Center
Wed 02:46:47 PM 29.6086 -96.8244 93° East 146 168 5,400  Descending Houston Center
Wed 02:47:54 PM 29.6089 -96.7742 90° East 142 163 5,500  Climbing Houston Center
Wed 02:48:43 PM 29.6097 -96.7333 89° East 147 169 5,400 -70 Descending Houston Center
Wed 02:49:20 PM 29.6103 -96.7053 89° East 145 167 5,400 61 Level Houston Center
Wed 02:50:22 PM 29.6114 -96.6603 88° East 142 163 5,500 65 Climbing Houston Center
Wed 02:50:52 PM 29.6103 -96.6372 93° East 143 165 5,500  Level Houston Center
Wed 02:51:24 PM 29.6103 -96.6119 90° East 149 171 5,500 63 Level Houston Center
Wed 02:52:27 PM 29.6100 -96.5653 90° East 146 168 5,600 -48 Climbing Houston Center
Wed 02:53:29 PM 29.6100 -96.5169 90° East 150 173 5,400 -97 Descending Houston Center
Wed 02:54:31 PM 29.6108 -96.4717 89° East 143 165 5,400  Level Houston Center
Wed 02:55:33 PM 29.6108 -96.4208 90° East 134 154 5,400 48 Level Houston Center
Wed 02:56:35 PM 29.6106 -96.3767 90° East 137 158 5,500 48 Climbing Houston Center
Wed 02:57:37 PM 29.6100 -96.3317 91° East 140 161 5,500  Level Houston Center
Wed 02:58:39 PM 29.6103 -96.2839 90° East 148 170 5,500 -48 Level Houston Center
Wed 02:59:41 PM 29.6103 -96.2383 90° East 144 166 5,400  Descending Houston Center
Wed 03:00:44 PM 29.6106 -96.1850 90° East 138 159 5,500 48 Climbing Houston Center
Wed 03:01:46 PM 29.6089 -96.1394 92° East 142 163 5,500 -48 Level Houston Center
Wed 03:02:48 PM 29.6094 -96.0947 89° East 140 161 5,400 -48 Descending Houston Center
Wed 03:03:50 PM 29.6092 -96.0489 90° East 143 165 5,400  Level Houston Center
Wed 03:04:52 PM 29.6100 -96.0011 89° East 140 161 5,400 48 Level Houston Center
Wed 03:05:54 PM 29.6089 -95.9544 92° East 146 168 5,500 -194 Climbing Houston Center
Wed 03:06:56 PM 29.6025 -95.9092 99° East 145 167 5,000 -366 Descending Houston Center
Wed 03:08:05 PM 29.5894 -95.8494 104° East 152 175 4,700 -336 Descending Houston Center
Wed 03:09:01 PM 29.5814 -95.8150 105° East 151 174 4,300 -407 Descending Houston Center
Wed 03:10:03 PM 29.5686 -95.7600 105° East 150 173 3,900 -422 Descending Houston Center
Wed 03:11:09 PM 29.5558 -95.7069 105° East 153 176 3,400 -290 Descending Houston Center
Wed 03:12:07 PM 29.5478 -95.6686 104° East 147 169 3,300 50 Descending Houston Center
Wed 03:13:09 PM 29.5389 -95.6258 103° East 141 162 3,500 190 Climbing Houston Center
Wed 03:14:13 PM 29.5272 -95.5758 105° East 138 159 3,700 -48 Climbing Houston Center
Wed 03:15:13 PM 29.5178 -95.5303 103° East 144 166 3,400 -146 Descending Houston Center
Wed 03:16:16 PM 29.5086 -95.4869 104° East 140 161 3,400 -48 Level Houston Center
Wed 03:17:17 PM 29.4981 -95.4400 104° East 139 160 3,300 -148 Descending Houston Center
Wed 03:18:18 PM 29.4939 -95.3950 96° East 143 165 3,100 -148 Descending Houston Center
Wed 03:19:19 PM 29.4897 -95.3500 96° East 145 167 3,000 -95 Descending Houston Center
Wed 03:20:24 PM 29.4858 -95.2994 95° East 143 165 2,900 -94 Descending Houston Center
Wed 03:21:26 PM 29.4825 -95.2558 95° East 141 162 2,800 -303 Descending Houston Center
Wed 03:22:23 PM 29.4942 -95.2150 72° East 153 176 2,300 -555 Descending Houston Center
Wed 03:23:25 PM 29.5267 -95.1822 41° Northeast 149 171 1,700 -488 Descending Houston Center
Wed 03:24:26 PM 29.5650 -95.1631 24° Northeast 146 168 1,300 -443 Descending Houston Center
Wed 03:25:27 PM 29.6019 -95.1539 12° North 132 152 800 -504 Descending Houston Center
Wed 03:26:37 PM 29.6225 -95.1722 322° Northwest 128 147 200 -514 Descending Houston Center

Login

Don't have an account? Register now (free) for customized features, flight alerts, and more!